sensor_id;sensor_type;location;lat;lon;timestamp;temperature;humidity
38798;SHT11;24546;52.240;16.826;2023-02-15T00:02:09;1.30;99.90
38798;SHT11;24546;52.240;16.826;2023-02-15T00:07:10;1.30;99.90
38798;SHT11;24546;52.240;16.826;2023-02-15T00:12:11;1.20;99.90
38798;SHT11;24546;52.240;16.826;2023-02-15T00:17:12;1.20;99.90
38798;SHT11;24546;52.240;16.826;2023-02-15T00:22:13;1.10;99.90
38798;SHT11;24546;52.240;16.826;2023-02-15T00:27:14;1.10;99.90
38798;SHT11;24546;52.240;16.826;2023-02-15T00:32:15;1.00;99.90
38798;SHT11;24546;52.240;16.826;2023-02-15T00:37:16;0.90;99.90
38798;SHT11;24546;52.240;16.826;2023-02-15T00:42:21;0.90;99.90
38798;SHT11;24546;52.240;16.826;2023-02-15T00:47:22;0.90;99.90
38798;SHT11;24546;52.240;16.826;2023-02-15T00:52:25;0.90;99.90
38798;SHT11;24546;52.240;16.826;2023-02-15T00:57:26;0.90;99.90
38798;SHT11;24546;52.240;16.826;2023-02-15T01:02:27;0.90;99.90
38798;SHT11;24546;52.240;16.826;2023-02-15T01:07:28;0.80;99.90
38798;SHT11;24546;52.240;16.826;2023-02-15T01:12:30;0.80;99.90
38798;SHT11;24546;52.240;16.826;2023-02-15T01:17:31;0.80;99.90
38798;SHT11;24546;52.240;16.826;2023-02-15T01:22:32;0.70;99.90
38798;SHT11;24546;52.240;16.826;2023-02-15T01:27:33;0.70;99.90
38798;SHT11;24546;52.240;16.826;2023-02-15T01:32:34;0.60;99.90
38798;SHT11;24546;52.240;16.826;2023-02-15T01:37:37;0.50;99.90
38798;SHT11;24546;52.240;16.826;2023-02-15T01:42:39;0.50;99.90
38798;SHT11;24546;52.240;16.826;2023-02-15T01:47:47;0.50;99.90
38798;SHT11;24546;52.240;16.826;2023-02-15T01:53:03;0.50;99.90
38798;SHT11;24546;52.240;16.826;2023-02-15T01:58:06;0.50;99.90
38798;SHT11;24546;52.240;16.826;2023-02-15T02:03:08;0.40;99.90
38798;SHT11;24546;52.240;16.826;2023-02-15T02:08:09;0.40;99.90
38798;SHT11;24546;52.240;16.826;2023-02-15T02:13:10;0.30;99.90
38798;SHT11;24546;52.240;16.826;2023-02-15T02:45:28;0.10;99.90
38798;SHT11;24546;52.240;16.826;2023-02-15T02:50:32;0.10;99.90
38798;SHT11;24546;52.240;16.826;2023-02-15T03:00:57;0.10;99.90
38798;SHT11;24546;52.240;16.826;2023-02-15T03:06:10;0.10;99.90
38798;SHT11;24546;52.240;16.826;2023-02-15T03:11:12;0.10;99.90
38798;SHT11;24546;52.240;16.826;2023-02-15T03:16:15;0.10;99.90
38798;SHT11;24546;52.240;16.826;2023-02-15T03:26:44;0.10;99.90
38798;SHT11;24546;52.240;16.826;2023-02-15T03:31:50;0.10;99.90
38798;SHT11;24546;52.240;16.826;2023-02-15T03:37:00;0.10;99.90
38798;SHT11;24546;52.240;16.826;2023-02-15T03:42:22;0.10;99.90
38798;SHT11;24546;52.240;16.826;2023-02-15T03:47:30;0.10;99.90
38798;SHT11;24546;52.240;16.826;2023-02-15T03:52:33;0.20;99.90
38798;SHT11;24546;52.240;16.826;2023-02-15T03:57:37;0.10;99.90
38798;SHT11;24546;52.240;16.826;2023-02-15T04:08:13;0.00;99.90
38798;SHT11;24546;52.240;16.826;2023-02-15T04:13:14;0.00;99.90
38798;SHT11;24546;52.240;16.826;2023-02-15T04:18:15;0.00;99.90
38798;SHT11;24546;52.240;16.826;2023-02-15T04:23:16;-0.10;99.90
38798;SHT11;24546;52.240;16.826;2023-02-15T04:28:36;0.00;99.90
38798;SHT11;24546;52.240;16.826;2023-02-15T04:33:37;0.00;99.90
38798;SHT11;24546;52.240;16.826;2023-02-15T04:38:38;-0.10;99.90
38798;SHT11;24546;52.240;16.826;2023-02-15T04:43:39;-0.10;99.90
38798;SHT11;24546;52.240;16.826;2023-02-15T04:48:40;-0.10;99.90
38798;SHT11;24546;52.240;16.826;2023-02-15T04:53:41;-0.10;99.90
38798;SHT11;24546;52.240;16.826;2023-02-15T04:58:42;-0.20;99.90
38798;SHT11;24546;52.240;16.826;2023-02-15T05:03:43;-0.20;99.90
38798;SHT11;24546;52.240;16.826;2023-02-15T05:08:44;-0.20;99.90
38798;SHT11;24546;52.240;16.826;2023-02-15T05:13:45;-0.20;99.90
38798;SHT11;24546;52.240;16.826;2023-02-15T05:18:46;-0.20;99.90
38798;SHT11;24546;52.240;16.826;2023-02-15T05:23:47;-0.20;99.90
38798;SHT11;24546;52.240;16.826;2023-02-15T05:28:48;-0.30;99.90
38798;SHT11;24546;52.240;16.826;2023-02-15T05:33:49;-0.30;99.90
38798;SHT11;24546;52.240;16.826;2023-02-15T05:38:50;-0.30;99.90
38798;SHT11;24546;52.240;16.826;2023-02-15T05:43:51;-0.40;99.90
38798;SHT11;24546;52.240;16.826;2023-02-15T05:48:52;-0.40;99.90
38798;SHT11;24546;52.240;16.826;2023-02-15T05:53:53;-0.40;99.90
38798;SHT11;24546;52.240;16.826;2023-02-15T05:58:54;-0.40;99.90
38798;SHT11;24546;52.240;16.826;2023-02-15T06:03:55;-0.40;99.90
38798;SHT11;24546;52.240;16.826;2023-02-15T06:08:56;-0.40;99.90
38798;SHT11;24546;52.240;16.826;2023-02-15T06:13:57;-0.50;99.90
38798;SHT11;24546;52.240;16.826;2023-02-15T06:18:58;-0.50;99.90
38798;SHT11;24546;52.240;16.826;2023-02-15T06:24:00;-0.50;99.90
38798;SHT11;24546;52.240;16.826;2023-02-15T06:29:01;-0.50;99.90
38798;SHT11;24546;52.240;16.826;2023-02-15T06:34:02;-0.50;99.90
38798;SHT11;24546;52.240;16.826;2023-02-15T06:39:03;-0.40;99.90
38798;SHT11;24546;52.240;16.826;2023-02-15T06:44:04;-0.30;99.90
38798;SHT11;24546;52.240;16.826;2023-02-15T06:49:06;-0.20;99.90
38798;SHT11;24546;52.240;16.826;2023-02-15T06:54:07;-0.10;99.90
38798;SHT11;24546;52.240;16.826;2023-02-15T06:59:08;0.00;99.90
38798;SHT11;24546;52.240;16.826;2023-02-15T07:04:09;0.10;99.90
38798;SHT11;24546;52.240;16.826;2023-02-15T07:09:10;0.20;99.90
38798;SHT11;24546;52.240;16.826;2023-02-15T07:14:12;0.30;99.90
38798;SHT11;24546;52.240;16.826;2023-02-15T07:19:13;0.40;99.90
38798;SHT11;24546;52.240;16.826;2023-02-15T07:24:14;0.60;99.90
38798;SHT11;24546;52.240;16.826;2023-02-15T07:29:15;0.70;99.90
38798;SHT11;24546;52.240;16.826;2023-02-15T07:34:20;0.90;99.90
38798;SHT11;24546;52.240;16.826;2023-02-15T07:39:21;1.00;99.90
38798;SHT11;24546;52.240;16.826;2023-02-15T07:44:26;1.20;99.90
38798;SHT11;24546;52.240;16.826;2023-02-15T07:49:27;1.40;99.90
38798;SHT11;24546;52.240;16.826;2023-02-15T07:54:28;1.50;99.90
38798;SHT11;24546;52.240;16.826;2023-02-15T07:59:29;1.80;99.90
38798;SHT11;24546;52.240;16.826;2023-02-15T08:04:32;2.00;99.90
38798;SHT11;24546;52.240;16.826;2023-02-15T08:09:33;2.30;99.90
38798;SHT11;24546;52.240;16.826;2023-02-15T08:14:34;2.60;99.90
38798;SHT11;24546;52.240;16.826;2023-02-15T08:19:35;2.90;99.90
38798;SHT11;24546;52.240;16.826;2023-02-15T08:24:38;3.00;99.90
38798;SHT11;24546;52.240;16.826;2023-02-15T08:29:39;3.10;99.90
38798;SHT11;24546;52.240;16.826;2023-02-15T08:34:42;3.50;99.90
38798;SHT11;24546;52.240;16.826;2023-02-15T08:39:44;3.90;99.90
38798;SHT11;24546;52.240;16.826;2023-02-15T08:44:51;4.50;99.90
38798;SHT11;24546;52.240;16.826;2023-02-15T08:49:54;4.70;99.90
38798;SHT11;24546;52.240;16.826;2023-02-15T08:54:56;4.90;99.90
38798;SHT11;24546;52.240;16.826;2023-02-15T08:59:57;4.90;99.90
38798;SHT11;24546;52.240;16.826;2023-02-15T09:05:00;5.20;99.90
38798;SHT11;24546;52.240;16.826;2023-02-15T09:10:08;5.30;99.90
38798;SHT11;24546;52.240;16.826;2023-02-15T09:15:10;5.70;99.90
38798;SHT11;24546;52.240;16.826;2023-02-15T09:20:14;6.10;99.90
38798;SHT11;24546;52.240;16.826;2023-02-15T09:25:16;6.40;99.90
38798;SHT11;24546;52.240;16.826;2023-02-15T09:30:17;6.70;99.90
38798;SHT11;24546;52.240;16.826;2023-02-15T09:35:24;6.90;99.90
38798;SHT11;24546;52.240;16.826;2023-02-15T09:40:27;6.40;99.90
38798;SHT11;24546;52.240;16.826;2023-02-15T09:45:58;6.20;99.90
38798;SHT11;24546;52.240;16.826;2023-02-15T09:51:16;6.30;99.90
38798;SHT11;24546;52.240;16.826;2023-02-15T09:56:42;6.40;99.90
38798;SHT11;24546;52.240;16.826;2023-02-15T10:07:00;6.50;99.90
38798;SHT11;24546;52.240;16.826;2023-02-15T10:12:29;6.80;99.90
38798;SHT11;24546;52.240;16.826;2023-02-15T10:28:24;7.30;99.90
38798;SHT11;24546;52.240;16.826;2023-02-15T10:33:40;7.10;99.90
38798;SHT11;24546;52.240;16.826;2023-02-15T10:54:48;7.70;99.90
38798;SHT11;24546;52.240;16.826;2023-02-15T11:05:35;8.00;99.90
38798;SHT11;24546;52.240;16.826;2023-02-15T11:10:52;8.20;99.90
38798;SHT11;24546;52.240;16.826;2023-02-15T11:16:16;8.20;99.90
38798;SHT11;24546;52.240;16.826;2023-02-15T11:21:33;8.10;99.90
38798;SHT11;24546;52.240;16.826;2023-02-15T11:27:02;8.30;99.90
38798;SHT11;24546;52.240;16.826;2023-02-15T11:32:28;8.40;99.90
38798;SHT11;24546;52.240;16.826;2023-02-15T11:37:41;8.50;99.90
38798;SHT11;24546;52.240;16.826;2023-02-15T11:42:49;8.60;99.90
38798;SHT11;24546;52.240;16.826;2023-02-15T11:47:55;8.50;99.90
38798;SHT11;24546;52.240;16.826;2023-02-15T11:53:11;8.60;99.90
38798;SHT11;24546;52.240;16.826;2023-02-15T12:03:56;8.80;99.90
38798;SHT11;24546;52.240;16.826;2023-02-15T12:14:14;9.40;99.90
38798;SHT11;24546;52.240;16.826;2023-02-15T12:24:44;8.90;99.90
38798;SHT11;24546;52.240;16.826;2023-02-15T12:30:16;9.00;99.90
38798;SHT11;24546;52.240;16.826;2023-02-15T12:35:34;8.90;99.90
38798;SHT11;24546;52.240;16.826;2023-02-15T12:40:37;9.10;99.90
38798;SHT11;24546;52.240;16.826;2023-02-15T12:45:39;9.10;99.90
38798;SHT11;24546;52.240;16.826;2023-02-15T12:50:44;9.20;99.90
38798;SHT11;24546;52.240;16.826;2023-02-15T12:55:57;9.30;99.90
38798;SHT11;24546;52.240;16.826;2023-02-15T13:06:13;9.10;99.90
38798;SHT11;24546;52.240;16.826;2023-02-15T13:11:36;9.00;99.90
38798;SHT11;24546;52.240;16.826;2023-02-15T13:16:39;8.70;99.90
38798;SHT11;24546;52.240;16.826;2023-02-15T13:21:47;8.80;99.90
38798;SHT11;24546;52.240;16.826;2023-02-15T13:26:50;8.90;99.90
38798;SHT11;24546;52.240;16.826;2023-02-15T13:31:55;8.60;99.90
38798;SHT11;24546;52.240;16.826;2023-02-15T13:42:59;8.60;99.90
38798;SHT11;24546;52.240;16.826;2023-02-15T14:04:42;8.60;99.90
38798;SHT11;24546;52.240;16.826;2023-02-15T14:15:55;8.80;99.90
38798;SHT11;24546;52.240;16.826;2023-02-15T14:21:37;8.70;99.90
38798;SHT11;24546;52.240;16.826;2023-02-15T14:27:14;8.70;99.90
38798;SHT11;24546;52.240;16.826;2023-02-15T14:32:16;8.40;99.90
38798;SHT11;24546;52.240;16.826;2023-02-15T14:42:36;8.30;99.90
38798;SHT11;24546;52.240;16.826;2023-02-15T14:47:44;8.20;99.90
38798;SHT11;24546;52.240;16.826;2023-02-15T14:58:28;8.20;99.90
38798;SHT11;24546;52.240;16.826;2023-02-15T15:03:29;8.20;99.90
38798;SHT11;24546;52.240;16.826;2023-02-15T15:08:38;8.30;99.90
38798;SHT11;24546;52.240;16.826;2023-02-15T15:13:53;8.30;99.90
38798;SHT11;24546;52.240;16.826;2023-02-15T15:18:55;8.10;99.90
38798;SHT11;24546;52.240;16.826;2023-02-15T15:23:57;8.20;99.90
38798;SHT11;24546;52.240;16.826;2023-02-15T15:29:00;8.20;99.90
38798;SHT11;24546;52.240;16.826;2023-02-15T15:34:27;8.30;99.90
38798;SHT11;24546;52.240;16.826;2023-02-15T15:50:19;8.20;99.90
38798;SHT11;24546;52.240;16.826;2023-02-15T15:55:23;8.20;99.90
38798;SHT11;24546;52.240;16.826;2023-02-15T16:05:39;7.90;99.90
38798;SHT11;24546;52.240;16.826;2023-02-15T16:10:40;7.70;99.90
38798;SHT11;24546;52.240;16.826;2023-02-15T16:15:46;7.50;99.90
38798;SHT11;24546;52.240;16.826;2023-02-15T16:20:58;7.40;99.90
38798;SHT11;24546;52.240;16.826;2023-02-15T16:31:29;7.00;99.90
38798;SHT11;24546;52.240;16.826;2023-02-15T16:36:30;6.80;99.90
38798;SHT11;24546;52.240;16.826;2023-02-15T16:41:31;6.60;99.90
38798;SHT11;24546;52.240;16.826;2023-02-15T16:46:37;6.50;99.90
38798;SHT11;24546;52.240;16.826;2023-02-15T16:51:43;6.30;99.90
38798;SHT11;24546;52.240;16.826;2023-02-15T16:56:45;6.20;99.90
38798;SHT11;24546;52.240;16.826;2023-02-15T17:01:47;6.00;99.90
38798;SHT11;24546;52.240;16.826;2023-02-15T17:07:15;5.90;99.90
38798;SHT11;24546;52.240;16.826;2023-02-15T17:13:00;5.80;99.90
38798;SHT11;24546;52.240;16.826;2023-02-15T17:18:12;5.70;99.90
38798;SHT11;24546;52.240;16.826;2023-02-15T17:23:29;5.60;99.90
38798;SHT11;24546;52.240;16.826;2023-02-15T17:28:31;5.40;99.90
38798;SHT11;24546;52.240;16.826;2023-02-15T17:38:33;5.30;99.90
38798;SHT11;24546;52.240;16.826;2023-02-15T17:43:34;5.20;99.90
38798;SHT11;24546;52.240;16.826;2023-02-15T17:48:37;5.10;99.90
38798;SHT11;24546;52.240;16.826;2023-02-15T17:53:41;5.00;99.90
38798;SHT11;24546;52.240;16.826;2023-02-15T17:59:02;4.90;99.90
38798;SHT11;24546;52.240;16.826;2023-02-15T18:04:14;4.90;99.90
38798;SHT11;24546;52.240;16.826;2023-02-15T18:09:33;4.70;99.90
38798;SHT11;24546;52.240;16.826;2023-02-15T18:14:54;4.70;99.90
38798;SHT11;24546;52.240;16.826;2023-02-15T18:19:55;4.60;99.90
38798;SHT11;24546;52.240;16.826;2023-02-15T18:24:57;4.50;99.90
38798;SHT11;24546;52.240;16.826;2023-02-15T18:29:58;4.50;99.90
38798;SHT11;24546;52.240;16.826;2023-02-15T18:34:59;4.40;99.90
38798;SHT11;24546;52.240;16.826;2023-02-15T18:40:01;4.30;99.90
38798;SHT11;24546;52.240;16.826;2023-02-15T18:45:18;4.30;99.90
38798;SHT11;24546;52.240;16.826;2023-02-15T18:50:20;4.20;99.90
38798;SHT11;24546;52.240;16.826;2023-02-15T18:55:23;4.20;99.90
38798;SHT11;24546;52.240;16.826;2023-02-15T19:00:31;4.10;99.90
38798;SHT11;24546;52.240;16.826;2023-02-15T19:05:37;4.00;99.90
38798;SHT11;24546;52.240;16.826;2023-02-15T19:10:38;4.00;99.90
38798;SHT11;24546;52.240;16.826;2023-02-15T19:15:40;3.90;99.90
38798;SHT11;24546;52.240;16.826;2023-02-15T19:20:43;3.80;99.90
38798;SHT11;24546;52.240;16.826;2023-02-15T19:25:49;3.80;99.90
38798;SHT11;24546;52.240;16.826;2023-02-15T19:30:55;3.70;99.90
38798;SHT11;24546;52.240;16.826;2023-02-15T19:36:04;3.70;99.90
38798;SHT11;24546;52.240;16.826;2023-02-15T19:41:07;3.60;99.90
38798;SHT11;24546;52.240;16.826;2023-02-15T19:46:15;3.60;99.90
38798;SHT11;24546;52.240;16.826;2023-02-15T19:51:22;3.50;99.90
38798;SHT11;24546;52.240;16.826;2023-02-15T19:56:56;3.40;99.90
38798;SHT11;24546;52.240;16.826;2023-02-15T20:01:57;3.40;99.90
38798;SHT11;24546;52.240;16.826;2023-02-15T20:07:00;3.30;99.90
38798;SHT11;24546;52.240;16.826;2023-02-15T20:12:29;3.20;99.90
38798;SHT11;24546;52.240;16.826;2023-02-15T20:17:30;3.20;99.90
38798;SHT11;24546;52.240;16.826;2023-02-15T20:22:31;3.10;99.90
38798;SHT11;24546;52.240;16.826;2023-02-15T20:27:33;3.00;99.90
38798;SHT11;24546;52.240;16.826;2023-02-15T20:32:37;3.00;99.90
38798;SHT11;24546;52.240;16.826;2023-02-15T20:37:38;2.90;99.90
38798;SHT11;24546;52.240;16.826;2023-02-15T20:42:39;2.80;99.90
38798;SHT11;24546;52.240;16.826;2023-02-15T20:47:40;2.80;99.90
38798;SHT11;24546;52.240;16.826;2023-02-15T20:52:45;2.70;99.90
38798;SHT11;24546;52.240;16.826;2023-02-15T20:57:47;2.70;99.90
38798;SHT11;24546;52.240;16.826;2023-02-15T21:02:53;2.60;99.90
38798;SHT11;24546;52.240;16.826;2023-02-15T21:07:55;2.60;99.90
38798;SHT11;24546;52.240;16.826;2023-02-15T21:12:58;2.50;99.90
38798;SHT11;24546;52.240;16.826;2023-02-15T21:18:06;2.50;99.90
38798;SHT11;24546;52.240;16.826;2023-02-15T21:23:11;2.40;99.90
38798;SHT11;24546;52.240;16.826;2023-02-15T21:28:18;2.40;99.90
38798;SHT11;24546;52.240;16.826;2023-02-15T21:33:20;2.30;99.90
38798;SHT11;24546;52.240;16.826;2023-02-15T21:38:24;2.30;99.90
38798;SHT11;24546;52.240;16.826;2023-02-15T21:43:25;2.20;99.90
38798;SHT11;24546;52.240;16.826;2023-02-15T21:48:44;2.20;99.90
38798;SHT11;24546;52.240;16.826;2023-02-15T21:53:46;2.10;99.90
38798;SHT11;24546;52.240;16.826;2023-02-15T21:58:47;2.00;99.90
38798;SHT11;24546;52.240;16.826;2023-02-15T22:03:49;2.00;99.90
38798;SHT11;24546;52.240;16.826;2023-02-15T22:08:50;2.00;99.90
38798;SHT11;24546;52.240;16.826;2023-02-15T22:13:51;2.00;99.90
38798;SHT11;24546;52.240;16.826;2023-02-15T22:18:52;1.90;99.90
38798;SHT11;24546;52.240;16.826;2023-02-15T22:23:53;1.90;99.90
38798;SHT11;24546;52.240;16.826;2023-02-15T22:28:55;1.80;99.90
38798;SHT11;24546;52.240;16.826;2023-02-15T22:33:57;1.80;99.90
38798;SHT11;24546;52.240;16.826;2023-02-15T22:38:58;1.70;99.90
38798;SHT11;24546;52.240;16.826;2023-02-15T22:43:59;1.70;99.90
38798;SHT11;24546;52.240;16.826;2023-02-15T22:49:00;1.60;99.90
38798;SHT11;24546;52.240;16.826;2023-02-15T22:54:01;1.50;99.90
38798;SHT11;24546;52.240;16.826;2023-02-15T22:59:08;1.50;99.90
38798;SHT11;24546;52.240;16.826;2023-02-15T23:04:23;1.50;99.90
38798;SHT11;24546;52.240;16.826;2023-02-15T23:09:24;1.50;99.90
38798;SHT11;24546;52.240;16.826;2023-02-15T23:14:32;1.40;99.90
38798;SHT11;24546;52.240;16.826;2023-02-15T23:19:34;1.40;99.90
38798;SHT11;24546;52.240;16.826;2023-02-15T23:24:35;1.30;99.90
38798;SHT11;24546;52.240;16.826;2023-02-15T23:29:36;1.30;99.90
38798;SHT11;24546;52.240;16.826;2023-02-15T23:34:37;1.30;99.90
38798;SHT11;24546;52.240;16.826;2023-02-15T23:39:39;1.30;99.90
38798;SHT11;24546;52.240;16.826;2023-02-15T23:44:58;1.20;99.90
38798;SHT11;24546;52.240;16.826;2023-02-15T23:49:59;1.10;99.90
38798;SHT11;24546;52.240;16.826;2023-02-15T23:55:00;1.10;99.90
